Warrensburg, Missouri
Current Conditions -  °F | °C
As of 11:55 AM on Thursday 23 Oct 2014 (Local Time) from KRCM Reporting Station
Overcast Overcast  
Wind Chill: 61°   Ceiling: 1100
Heat Index: 61°   Visibility: 10mi
Dew Point: 54°   Wind: 7mph
Humidity: 77%   Direction: 180°S
Pressure: 30.13"   Gusts: NA
Location:  38.77°N, 93.74°W
Report Text: KRCM 231655Z AUTO 18006KT 10SM BKN011 OVC042 16/12 A3013 RMK AO2
Loading
Personal Weather Stations






























Interactive Weather Map
Tropical Storm Tracking
New forecast layout! Learn more

10-Day Weather Forecast

Advertisements
Track Severe Weather on mobile